createdAt,value
2022-12-26T00:00:36.494Z,4.26
2022-12-26T00:02:08.022Z,4.17
2022-12-26T00:03:39.577Z,3.72
2022-12-26T00:05:10.953Z,4.90
2022-12-26T00:06:42.291Z,5.01
2022-12-26T00:08:13.757Z,5.89
2022-12-26T00:09:45.015Z,6.33
2022-12-26T00:11:16.310Z,5.89
2022-12-26T00:12:47.662Z,4.71
2022-12-26T00:14:18.957Z,5.20
2022-12-26T00:15:50.289Z,5.58
2022-12-26T00:17:21.585Z,6.27
2022-12-26T00:18:53.239Z,7.35
2022-12-26T00:20:24.626Z,5.45
2022-12-26T00:21:56.039Z,6.92
2022-12-26T00:23:27.549Z,7.56
2022-12-26T00:24:58.960Z,10.71
2022-12-26T00:26:30.297Z,7.95
2022-12-26T00:28:02.093Z,9.60
2022-12-26T00:29:33.438Z,9.79
2022-12-26T00:31:04.865Z,6.77
2022-12-26T00:32:36.232Z,6.46
2022-12-26T00:34:07.428Z,5.00
2022-12-26T00:35:38.744Z,6.21
2022-12-26T00:37:10.192Z,7.02
2022-12-26T00:38:41.509Z,7.02
2022-12-26T00:40:12.816Z,8.26
2022-12-26T00:41:44.261Z,8.01
2022-12-26T00:43:15.566Z,7.23
2022-12-26T00:44:46.985Z,8.21
2022-12-26T00:46:18.438Z,9.25
2022-12-26T00:47:49.848Z,9.18
2022-12-26T00:49:21.261Z,9.72
2022-12-26T00:50:52.657Z,2.00
2022-12-26T00:52:24.086Z,0.29
2022-12-26T00:53:55.419Z,0.35
2022-12-26T00:55:26.932Z,0.63
2022-12-26T00:56:58.400Z,0.51
2022-12-26T00:58:29.957Z,0.40
2022-12-26T01:00:01.510Z,0.26
2022-12-26T01:01:33.061Z,0.77
2022-12-26T01:03:04.756Z,0.46
2022-12-26T01:04:36.031Z,2.89
2022-12-26T01:06:07.656Z,0.41
2022-12-26T01:08:19.783Z,1.37
2022-12-26T01:09:55.385Z,0.48
2022-12-26T01:11:26.728Z,0.32
2022-12-26T01:12:58.175Z,0.39
2022-12-26T01:14:29.640Z,0.32
2022-12-26T01:16:00.974Z,0.23
2022-12-26T01:17:32.383Z,0.84
2022-12-26T01:19:03.682Z,0.48
2022-12-26T01:20:35.066Z,0.36
2022-12-26T01:22:06.360Z,0.26
2022-12-26T01:23:37.892Z,0.26
2022-12-26T01:25:09.718Z,0.45
2022-12-26T01:26:41.046Z,0.25
2022-12-26T01:28:12.572Z,0.26
2022-12-26T01:29:43.909Z,0.30
2022-12-26T01:31:15.298Z,0.31
2022-12-26T01:32:46.886Z,0.29
2022-12-26T01:34:18.328Z,0.29
2022-12-26T01:35:49.637Z,0.27
2022-12-26T01:37:20.943Z,0.34
2022-12-26T01:38:52.377Z,0.25
2022-12-26T01:40:24.923Z,0.46
2022-12-26T01:41:56.257Z,0.60
2022-12-26T01:43:27.622Z,1.27
2022-12-26T01:44:59.044Z,0.32
2022-12-26T01:46:31.497Z,0.23
2022-12-26T01:48:02.818Z,0.72
2022-12-26T01:49:34.191Z,0.25
2022-12-26T01:51:05.775Z,0.57
2022-12-26T01:52:37.155Z,0.31
2022-12-26T01:54:39.202Z,0.99
2022-12-26T01:56:13.829Z,0.24
2022-12-26T01:57:45.220Z,0.26
2022-12-26T01:59:16.512Z,0.25
2022-12-26T02:00:47.893Z,0.39
2022-12-26T02:02:19.381Z,0.26
2022-12-26T02:03:51.035Z,0.34
2022-12-26T02:05:22.344Z,0.33
2022-12-26T02:06:53.764Z,0.39
2022-12-26T02:08:25.145Z,1.25
2022-12-26T02:09:56.610Z,0.26
2022-12-26T02:11:27.927Z,0.29
2022-12-26T02:12:59.265Z,1.17
2022-12-26T02:14:30.612Z,0.28
2022-12-26T02:16:02.134Z,0.54
2022-12-26T02:17:33.763Z,0.23
2022-12-26T02:19:05.182Z,0.48
2022-12-26T02:20:36.820Z,0.26
2022-12-26T02:22:08.241Z,0.39
2022-12-26T02:23:39.775Z,0.23
2022-12-26T02:25:11.074Z,0.24
2022-12-26T02:26:42.754Z,0.40
2022-12-26T02:28:14.228Z,0.27
2022-12-26T02:29:45.643Z,0.22
2022-12-26T02:31:16.904Z,0.49
2022-12-26T02:32:48.430Z,0.25
2022-12-26T02:34:19.911Z,0.25
2022-12-26T02:35:51.340Z,0.18
2022-12-26T02:37:22.734Z,0.21
2022-12-26T02:38:54.228Z,0.22
2022-12-26T02:40:25.476Z,0.24
2022-12-26T02:41:56.734Z,0.20
2022-12-26T02:43:28.078Z,0.22
2022-12-26T02:44:59.453Z,0.23
2022-12-26T02:46:30.900Z,0.28
2022-12-26T02:48:02.343Z,0.26
2022-12-26T02:49:33.887Z,0.21
2022-12-26T02:51:05.297Z,1.23
2022-12-26T02:52:36.546Z,1.37
2022-12-26T02:54:07.873Z,0.25
2022-12-26T02:55:39.351Z,0.37
2022-12-26T02:57:10.929Z,0.41
2022-12-26T02:58:42.567Z,0.31
2022-12-26T03:00:13.987Z,0.30
2022-12-26T03:01:45.628Z,0.24
2022-12-26T03:03:17.243Z,0.26
2022-12-26T03:04:48.831Z,0.40
2022-12-26T03:06:20.370Z,0.23
2022-12-26T03:07:51.796Z,0.20
2022-12-26T03:09:23.352Z,0.19
2022-12-26T03:10:54.718Z,0.29
2022-12-26T03:12:25.981Z,0.27
2022-12-26T03:13:57.981Z,0.27
2022-12-26T03:15:29.269Z,0.20
2022-12-26T03:17:00.612Z,0.23
2022-12-26T03:18:58.386Z,0.28
2022-12-26T03:20:31.568Z,0.24
2022-12-26T03:22:03.216Z,0.26
2022-12-26T03:23:34.559Z,0.38
2022-12-26T03:25:05.969Z,0.30
2022-12-26T03:26:38.592Z,0.35
2022-12-26T03:28:10.165Z,0.32
2022-12-26T03:29:45.315Z,0.29
2022-12-26T03:31:17.263Z,0.42
2022-12-26T03:32:49.035Z,0.28
2022-12-26T03:34:21.753Z,0.26
2022-12-26T03:35:53.109Z,0.28
2022-12-26T03:37:24.664Z,0.22
2022-12-26T03:39:19.486Z,0.26
2022-12-26T03:40:50.837Z,0.26
2022-12-26T03:42:22.162Z,0.20
2022-12-26T03:43:53.557Z,0.39
2022-12-26T03:45:24.955Z,0.32
2022-12-26T03:46:56.537Z,0.23
2022-12-26T03:48:27.913Z,0.24
2022-12-26T03:49:59.355Z,0.23
2022-12-26T03:51:31.885Z,0.23
2022-12-26T03:53:04.111Z,0.80
2022-12-26T03:54:40.473Z,0.28
2022-12-26T03:56:11.951Z,0.29
2022-12-26T03:57:43.267Z,0.25
2022-12-26T03:59:14.625Z,0.25
2022-12-26T04:00:46.225Z,0.28
2022-12-26T04:02:17.684Z,0.91
2022-12-26T04:03:49.231Z,0.32
2022-12-26T04:05:20.616Z,0.67
2022-12-26T04:06:51.913Z,0.37
2022-12-26T04:08:23.452Z,0.49
2022-12-26T04:09:54.820Z,0.32
2022-12-26T04:11:26.091Z,0.28
2022-12-26T04:12:57.724Z,0.59
2022-12-26T04:14:29.192Z,0.28
2022-12-26T04:16:00.543Z,0.29
2022-12-26T04:17:32.195Z,0.25
2022-12-26T04:19:03.685Z,0.32
2022-12-26T04:20:35.013Z,0.61
2022-12-26T04:22:06.443Z,0.41
2022-12-26T04:23:37.768Z,0.66
2022-12-26T04:25:09.141Z,0.54
2022-12-26T04:26:40.426Z,0.34
2022-12-26T04:28:11.748Z,0.25
2022-12-26T04:29:43.685Z,0.24
2022-12-26T04:31:15.098Z,0.52
2022-12-26T04:32:46.616Z,0.39
2022-12-26T04:34:17.926Z,0.30
2022-12-26T04:35:49.292Z,0.23
2022-12-26T04:37:20.575Z,0.27
2022-12-26T04:38:51.883Z,0.31
2022-12-26T04:40:23.196Z,0.21
2022-12-26T04:41:54.425Z,0.29
2022-12-26T04:43:46.679Z,0.31
2022-12-26T04:45:22.032Z,0.28
2022-12-26T04:46:53.437Z,0.38
2022-12-26T04:48:24.877Z,0.40
2022-12-26T04:49:56.181Z,0.26
2022-12-26T04:51:27.616Z,0.31
2022-12-26T04:52:59.288Z,0.25
2022-12-26T04:54:37.062Z,0.24
2022-12-26T04:56:08.408Z,0.20
2022-12-26T04:57:39.639Z,0.28
2022-12-26T04:59:10.848Z,0.37
2022-12-26T05:00:42.094Z,0.26
2022-12-26T05:02:13.524Z,0.37
2022-12-26T05:03:44.951Z,0.28
2022-12-26T05:05:16.484Z,0.28
2022-12-26T05:06:47.792Z,0.28
2022-12-26T05:08:19.092Z,0.26
2022-12-26T05:09:50.507Z,0.26
2022-12-26T05:11:22.125Z,0.77
2022-12-26T05:12:54.153Z,0.57
2022-12-26T05:14:25.439Z,0.26
2022-12-26T05:15:56.989Z,0.23
2022-12-26T05:17:28.695Z,0.21
2022-12-26T05:19:00.019Z,0.31
2022-12-26T05:20:31.331Z,0.22
2022-12-26T05:22:02.624Z,0.35
2022-12-26T05:23:33.878Z,0.37
2022-12-26T05:25:05.220Z,0.38
2022-12-26T05:26:36.607Z,0.34
2022-12-26T05:28:08.013Z,0.33
2022-12-26T05:29:39.450Z,0.32
2022-12-26T05:31:10.811Z,0.32
2022-12-26T05:32:42.197Z,0.26
2022-12-26T05:34:13.506Z,0.33
2022-12-26T05:35:44.840Z,0.39
2022-12-26T05:37:16.236Z,0.36
2022-12-26T05:38:47.589Z,0.32
2022-12-26T05:40:18.949Z,0.51
2022-12-26T05:41:50.303Z,0.29
2022-12-26T05:43:21.704Z,0.33
2022-12-26T05:44:53.021Z,0.30
2022-12-26T05:46:24.512Z,0.23
2022-12-26T05:47:55.873Z,0.39
2022-12-26T05:49:27.405Z,0.31
2022-12-26T05:50:58.784Z,0.79
2022-12-26T05:52:30.098Z,0.37
2022-12-26T05:54:01.469Z,0.40
2022-12-26T05:55:32.887Z,0.32
2022-12-26T05:57:04.193Z,0.37
2022-12-26T05:58:35.617Z,0.37
2022-12-26T06:00:06.908Z,0.37
2022-12-26T06:01:38.396Z,0.24
2022-12-26T06:03:10.140Z,0.35
2022-12-26T06:04:41.874Z,0.36
2022-12-26T06:06:13.253Z,0.25
2022-12-26T06:07:44.644Z,0.26
2022-12-26T06:09:16.009Z,0.27
2022-12-26T06:10:47.776Z,0.33
2022-12-26T06:12:19.255Z,0.36
2022-12-26T06:13:50.778Z,0.27
2022-12-26T06:15:23.247Z,0.45
2022-12-26T06:16:54.602Z,0.45
2022-12-26T06:18:25.877Z,0.30
2022-12-26T06:19:57.268Z,0.30
2022-12-26T06:21:28.644Z,0.23
2022-12-26T06:23:00.125Z,0.21
2022-12-26T06:24:31.807Z,1.28
2022-12-26T06:26:03.155Z,0.26
2022-12-26T06:27:34.393Z,0.30
2022-12-26T06:29:05.780Z,0.34
2022-12-26T06:30:37.094Z,0.32
2022-12-26T06:32:08.589Z,0.33
2022-12-26T06:33:40.205Z,0.23
2022-12-26T06:35:11.632Z,0.23
2022-12-26T06:36:42.882Z,0.41
2022-12-26T06:38:14.202Z,0.28
2022-12-26T06:39:45.597Z,0.51
2022-12-26T06:41:17.108Z,0.32
2022-12-26T06:42:48.722Z,0.44
2022-12-26T06:44:20.101Z,0.22
2022-12-26T06:45:51.798Z,0.23
2022-12-26T06:47:24.096Z,0.31
2022-12-26T06:48:55.441Z,0.30
2022-12-26T06:50:26.756Z,0.28
2022-12-26T06:51:58.100Z,0.29
2022-12-26T06:53:29.524Z,0.23
2022-12-26T06:55:00.895Z,4.65
2022-12-26T06:56:32.336Z,0.27
2022-12-26T06:58:04.034Z,0.42
2022-12-26T06:59:36.018Z,1.16
2022-12-26T07:01:07.576Z,0.66
2022-12-26T07:02:39.324Z,0.55
2022-12-26T07:04:10.990Z,0.28
2022-12-26T07:05:42.236Z,0.25
2022-12-26T07:07:13.623Z,0.28
2022-12-26T07:08:44.937Z,0.30
2022-12-26T07:10:16.229Z,4.23
2022-12-26T07:11:47.639Z,6.69
2022-12-26T07:13:19.354Z,5.73
2022-12-26T07:14:50.643Z,6.28
2022-12-26T07:16:22.110Z,7.08
2022-12-26T07:17:53.622Z,7.57
2022-12-26T07:19:24.959Z,6.80
2022-12-26T07:20:56.440Z,5.67
2022-12-26T07:22:27.851Z,7.92
2022-12-26T07:23:59.331Z,6.04
2022-12-26T07:25:30.824Z,6.08
2022-12-26T07:27:02.226Z,4.82
2022-12-26T07:28:33.627Z,4.66
2022-12-26T07:30:05.123Z,5.54
2022-12-26T07:31:36.557Z,6.18
2022-12-26T07:33:08.246Z,6.72
2022-12-26T07:34:39.565Z,5.36
2022-12-26T07:36:10.970Z,6.23
2022-12-26T07:37:42.356Z,5.49
2022-12-26T07:39:13.721Z,5.97
2022-12-26T07:40:45.339Z,5.70
2022-12-26T07:42:16.759Z,5.80
2022-12-26T07:43:48.248Z,6.55
2022-12-26T07:45:19.819Z,5.54
2022-12-26T07:46:51.394Z,5.68
2022-12-26T07:48:22.742Z,6.81
2022-12-26T07:49:54.039Z,6.14
2022-12-26T07:51:25.317Z,6.50
2022-12-26T07:52:56.617Z,7.50
2022-12-26T07:54:27.945Z,7.18
2022-12-26T07:55:59.246Z,7.35
2022-12-26T07:57:47.905Z,7.01
2022-12-26T07:59:20.172Z,6.11
2022-12-26T08:00:51.625Z,6.55
2022-12-26T08:02:23.007Z,7.50
2022-12-26T08:03:54.520Z,16.81
2022-12-26T08:05:25.917Z,17.11
2022-12-26T08:06:57.251Z,10.04
2022-12-26T08:08:28.517Z,9.59
2022-12-26T08:09:59.931Z,5.07
2022-12-26T08:11:32.354Z,6.37
2022-12-26T08:13:03.693Z,6.49
2022-12-26T08:14:36.446Z,5.66
2022-12-26T08:16:08.261Z,6.83
2022-12-26T08:17:39.647Z,4.71
2022-12-26T08:19:11.345Z,4.90
2022-12-26T08:20:42.745Z,6.24
2022-12-26T08:22:14.328Z,4.60
2022-12-26T08:23:45.632Z,4.14
2022-12-26T08:25:20.266Z,4.43
2022-12-26T08:26:53.810Z,6.59
2022-12-26T08:28:25.239Z,5.67
2022-12-26T08:29:56.494Z,3.32
2022-12-26T08:31:27.912Z,2.22
2022-12-26T08:32:59.515Z,2.80
2022-12-26T08:34:31.022Z,2.14
2022-12-26T08:36:02.296Z,3.59
2022-12-26T08:37:33.971Z,2.97
2022-12-26T08:39:05.356Z,4.04
2022-12-26T08:40:43.883Z,3.84
2022-12-26T08:42:17.319Z,3.32
2022-12-26T08:44:24.451Z,3.37
2022-12-26T08:45:57.534Z,2.89
2022-12-26T08:47:28.917Z,2.22
2022-12-26T08:49:00.718Z,2.81
2022-12-26T08:50:35.445Z,4.49
2022-12-26T08:52:10.648Z,3.72
2022-12-26T08:53:42.680Z,2.30
2022-12-26T08:55:14.147Z,4.28
2022-12-26T08:56:45.422Z,3.87
2022-12-26T08:58:16.817Z,2.68
2022-12-26T08:59:48.190Z,2.87
2022-12-26T09:01:19.766Z,3.57
2022-12-26T09:02:51.468Z,4.02
2022-12-26T09:04:23.186Z,3.70
2022-12-26T09:05:54.598Z,3.56
2022-12-26T09:07:25.851Z,3.93
2022-12-26T09:08:57.241Z,3.11
2022-12-26T09:10:28.512Z,2.61
2022-12-26T09:11:59.810Z,1.69
2022-12-26T09:13:31.141Z,3.84
2022-12-26T09:15:02.446Z,2.49
2022-12-26T09:16:38.052Z,2.50
2022-12-26T09:18:11.360Z,2.50
2022-12-26T09:19:43.323Z,1.94
2022-12-26T09:21:14.628Z,3.21
2022-12-26T09:22:45.944Z,3.63
2022-12-26T09:24:17.311Z,1.76
2022-12-26T09:25:48.756Z,2.48
2022-12-26T09:27:20.066Z,2.82
2022-12-26T09:28:51.426Z,3.15
2022-12-26T09:30:22.823Z,3.63
2022-12-26T09:31:54.402Z,2.50
2022-12-26T09:33:25.814Z,2.27
2022-12-26T09:34:57.604Z,1.70
2022-12-26T09:36:28.960Z,2.78
2022-12-26T09:38:00.319Z,2.51
2022-12-26T09:39:31.684Z,3.28
2022-12-26T09:41:03.059Z,2.56
2022-12-26T09:42:34.549Z,1.23
2022-12-26T09:44:07.170Z,1.96
2022-12-26T09:45:45.591Z,3.65
2022-12-26T09:47:17.387Z,3.05
2022-12-26T09:48:49.042Z,1.06
2022-12-26T09:50:21.605Z,1.59
2022-12-26T09:51:53.095Z,2.31
2022-12-26T09:53:24.398Z,2.02
2022-12-26T09:54:55.842Z,2.28
2022-12-26T09:57:01.841Z,1.61
2022-12-26T09:58:34.009Z,1.87
2022-12-26T10:00:05.672Z,3.50
2022-12-26T10:01:37.183Z,2.68
2022-12-26T10:03:08.552Z,2.48
2022-12-26T10:04:40.040Z,3.10
2022-12-26T10:06:16.609Z,3.20
2022-12-26T10:07:48.208Z,2.38
2022-12-26T10:09:19.816Z,2.67
2022-12-26T10:10:51.191Z,2.49
2022-12-26T10:12:22.576Z,2.27
2022-12-26T10:13:53.983Z,2.83
2022-12-26T10:15:25.390Z,2.78
2022-12-26T10:16:56.693Z,3.69
2022-12-26T10:18:28.022Z,2.37
2022-12-26T10:19:59.467Z,1.62
2022-12-26T10:21:30.933Z,3.16
2022-12-26T10:23:02.187Z,3.14
2022-12-26T10:24:33.526Z,3.62
2022-12-26T10:26:04.848Z,2.90
2022-12-26T10:27:36.100Z,1.50
2022-12-26T10:29:07.408Z,1.47
2022-12-26T10:30:39.134Z,1.46
2022-12-26T10:32:10.605Z,2.78
2022-12-26T10:33:41.947Z,3.07
2022-12-26T10:35:13.222Z,2.84
2022-12-26T10:36:44.549Z,1.98
2022-12-26T10:38:16.159Z,3.42
2022-12-26T10:39:47.493Z,3.86
2022-12-26T10:41:18.927Z,2.64
2022-12-26T10:42:50.566Z,3.71
2022-12-26T10:44:27.315Z,3.86
2022-12-26T10:45:59.302Z,2.71
2022-12-26T10:47:30.656Z,2.04
2022-12-26T10:49:02.042Z,3.93
2022-12-26T10:50:33.401Z,2.06
2022-12-26T10:52:04.821Z,5.50
2022-12-26T10:53:36.168Z,2.38
2022-12-26T10:55:27.021Z,2.50
2022-12-26T10:57:01.270Z,3.88
2022-12-26T10:58:32.644Z,3.96
2022-12-26T11:00:14.054Z,3.00
2022-12-26T11:01:45.559Z,3.60
2022-12-26T11:03:17.239Z,3.53
2022-12-26T11:05:13.102Z,3.98
2022-12-26T11:06:53.125Z,1.83
2022-12-26T11:08:24.642Z,4.01
2022-12-26T11:09:56.062Z,2.09
2022-12-26T11:11:27.376Z,3.22
2022-12-26T11:12:58.705Z,4.62
2022-12-26T11:14:33.760Z,1.92
2022-12-26T11:16:05.739Z,2.85
2022-12-26T11:17:37.283Z,2.71
2022-12-26T11:19:08.681Z,2.59
2022-12-26T11:20:40.221Z,3.45
2022-12-26T11:22:11.759Z,2.42
2022-12-26T11:23:43.208Z,3.86
2022-12-26T11:25:14.662Z,3.14
2022-12-26T11:26:45.940Z,2.57
2022-12-26T11:28:17.276Z,3.32
2022-12-26T11:29:48.697Z,4.70
2022-12-26T11:31:20.143Z,4.02
2022-12-26T11:32:51.644Z,3.35
2022-12-26T11:34:23.092Z,3.29
2022-12-26T11:35:54.423Z,2.99
2022-12-26T11:37:25.711Z,1.10
2022-12-26T11:38:57.048Z,2.79
2022-12-26T11:40:28.353Z,1.85
2022-12-26T11:41:59.752Z,3.83
2022-12-26T11:43:31.199Z,3.44
2022-12-26T11:45:02.493Z,2.38
2022-12-26T11:46:33.780Z,2.58
2022-12-26T11:48:05.273Z,2.63
2022-12-26T11:49:36.706Z,2.58
2022-12-26T11:51:08.430Z,2.46
2022-12-26T11:52:39.897Z,2.38
2022-12-26T11:54:11.467Z,3.53
2022-12-26T11:55:42.803Z,5.06
2022-12-26T11:57:14.101Z,3.33
2022-12-26T11:58:45.479Z,2.52
2022-12-26T12:00:17.025Z,3.18
2022-12-26T12:01:48.639Z,4.51
2022-12-26T12:03:20.094Z,4.58
2022-12-26T12:04:52.339Z,2.20
2022-12-26T12:06:23.719Z,3.48
2022-12-26T12:07:55.091Z,3.29
2022-12-26T12:09:26.538Z,4.22
2022-12-26T12:10:58.068Z,3.33
2022-12-26T12:12:29.665Z,3.68
2022-12-26T12:14:01.446Z,3.36
2022-12-26T12:15:32.933Z,3.72
2022-12-26T12:17:04.343Z,5.32
2022-12-26T12:18:35.678Z,2.58
2022-12-26T12:20:07.039Z,3.88
2022-12-26T12:21:38.401Z,3.59
2022-12-26T12:23:10.053Z,3.30
2022-12-26T12:24:41.426Z,4.56
2022-12-26T12:26:13.029Z,4.77
2022-12-26T12:27:44.460Z,4.78
2022-12-26T12:29:15.988Z,3.41
2022-12-26T12:30:47.434Z,2.86
2022-12-26T12:32:19.183Z,3.50
2022-12-26T12:33:50.493Z,3.82
2022-12-26T12:35:22.057Z,2.74
2022-12-26T12:36:53.577Z,3.86
2022-12-26T12:38:24.896Z,2.54
2022-12-26T12:39:56.832Z,3.08
2022-12-26T12:41:28.139Z,3.47
2022-12-26T12:43:03.420Z,3.88
2022-12-26T12:44:35.025Z,5.44
2022-12-26T12:46:06.355Z,3.52
2022-12-26T12:47:37.816Z,6.36
2022-12-26T12:49:09.336Z,4.18
2022-12-26T12:50:40.579Z,3.31
2022-12-26T12:52:12.097Z,4.50
2022-12-26T12:53:43.450Z,2.88
2022-12-26T12:55:15.128Z,3.47
2022-12-26T12:56:46.427Z,3.35
2022-12-26T12:58:18.081Z,2.72
2022-12-26T12:59:49.452Z,2.87
2022-12-26T13:01:20.952Z,3.88
2022-12-26T13:02:52.488Z,4.59
2022-12-26T13:04:23.962Z,3.58
2022-12-26T13:05:55.360Z,3.15
2022-12-26T13:07:26.707Z,4.73
2022-12-26T13:08:59.932Z,3.97
2022-12-26T13:10:31.278Z,3.51
2022-12-26T13:12:02.676Z,4.33
2022-12-26T13:13:34.091Z,2.36
2022-12-26T13:15:06.162Z,3.39
2022-12-26T13:16:37.910Z,3.17
2022-12-26T13:18:09.694Z,2.01
2022-12-26T13:19:41.421Z,3.89
2022-12-26T13:21:13.143Z,4.69
2022-12-26T13:22:44.601Z,3.74
2022-12-26T13:24:15.860Z,3.99
2022-12-26T13:25:47.577Z,5.22
2022-12-26T13:27:19.324Z,2.92
2022-12-26T13:28:50.829Z,3.66
2022-12-26T13:30:22.113Z,5.13
2022-12-26T13:31:53.598Z,4.01
2022-12-26T13:33:25.375Z,3.92
2022-12-26T13:34:56.810Z,4.83
2022-12-26T13:36:28.851Z,4.80
2022-12-26T13:38:00.791Z,4.59
2022-12-26T13:39:32.351Z,6.87
2022-12-26T13:41:03.970Z,5.00
2022-12-26T13:42:35.364Z,6.14
2022-12-26T13:44:06.615Z,8.49
2022-12-26T13:45:40.463Z,8.62
2022-12-26T13:47:12.159Z,8.12
2022-12-26T13:48:58.820Z,7.88
2022-12-26T13:50:30.123Z,10.40
2022-12-26T13:52:06.742Z,9.52
2022-12-26T13:53:38.459Z,9.58
2022-12-26T13:55:09.839Z,11.26
2022-12-26T13:56:45.888Z,11.80
2022-12-26T13:58:17.396Z,9.22
2022-12-26T13:59:48.662Z,11.21
2022-12-26T14:01:20.331Z,11.16
2022-12-26T14:03:16.118Z,8.69
2022-12-26T14:04:48.746Z,11.03
2022-12-26T14:06:20.138Z,12.06
2022-12-26T14:07:58.015Z,9.94
2022-12-26T14:09:29.398Z,12.92
2022-12-26T14:11:00.854Z,11.42
2022-12-26T14:12:32.129Z,11.78
2022-12-26T14:14:03.559Z,11.71
2022-12-26T14:15:35.019Z,10.69
2022-12-26T14:17:06.541Z,12.43
2022-12-26T14:18:37.793Z,12.78
2022-12-26T14:20:09.084Z,10.25
2022-12-26T14:21:40.426Z,11.89
2022-12-26T14:23:11.981Z,13.73
2022-12-26T14:24:43.587Z,10.52
2022-12-26T14:26:15.199Z,11.34
2022-12-26T14:27:46.528Z,13.19
2022-12-26T14:29:17.833Z,13.71
2022-12-26T14:30:49.285Z,9.90
2022-12-26T14:32:20.571Z,11.94
2022-12-26T14:33:53.026Z,11.92
2022-12-26T14:35:24.413Z,11.46
2022-12-26T14:36:55.777Z,10.63
2022-12-26T14:38:28.156Z,15.35
2022-12-26T14:39:59.542Z,11.04
2022-12-26T14:41:31.070Z,11.43
2022-12-26T14:43:02.392Z,10.30
2022-12-26T14:44:33.936Z,11.91
2022-12-26T14:46:05.401Z,13.20
2022-12-26T14:47:36.702Z,12.14
2022-12-26T14:49:08.265Z,13.09
2022-12-26T14:50:39.674Z,12.46
2022-12-26T14:52:11.016Z,10.10
2022-12-26T14:53:42.459Z,10.11
2022-12-26T14:55:13.863Z,12.14
2022-12-26T14:56:45.239Z,10.66
2022-12-26T14:58:16.514Z,12.57
2022-12-26T14:59:48.006Z,13.68
2022-12-26T15:01:19.359Z,13.11
2022-12-26T15:02:51.145Z,11.89
2022-12-26T15:04:22.910Z,10.32
2022-12-26T15:05:54.151Z,9.89
2022-12-26T15:07:25.552Z,14.57
2022-12-26T15:08:56.761Z,11.62
2022-12-26T15:10:28.469Z,11.03
2022-12-26T15:11:59.913Z,10.41
2022-12-26T15:13:31.270Z,13.36
2022-12-26T15:15:03.047Z,12.32
2022-12-26T15:16:34.350Z,13.37
2022-12-26T15:18:05.965Z,14.24
2022-12-26T15:19:37.628Z,11.77
2022-12-26T15:21:08.992Z,9.35
2022-12-26T15:22:40.358Z,12.51
2022-12-26T15:24:11.634Z,12.31
2022-12-26T15:25:42.881Z,11.57
2022-12-26T15:27:14.461Z,7.71
2022-12-26T15:28:45.737Z,12.13
2022-12-26T15:30:16.968Z,9.58
2022-12-26T15:31:48.368Z,11.53
2022-12-26T15:33:19.613Z,14.12
2022-12-26T15:34:51.362Z,12.97
2022-12-26T15:36:22.635Z,11.92
2022-12-26T15:37:54.008Z,12.59
2022-12-26T15:39:25.703Z,14.48
2022-12-26T15:40:57.348Z,15.01
2022-12-26T15:42:28.982Z,9.71
2022-12-26T15:44:00.458Z,14.00
2022-12-26T15:45:31.710Z,12.00
2022-12-26T15:47:03.025Z,12.07
2022-12-26T15:48:34.411Z,13.70
2022-12-26T15:50:05.913Z,9.86
2022-12-26T15:51:37.302Z,12.46
2022-12-26T15:53:08.676Z,14.90
2022-12-26T15:54:40.143Z,9.96
2022-12-26T15:56:11.521Z,12.51
2022-12-26T15:57:42.980Z,13.96
2022-12-26T15:59:14.488Z,13.42
2022-12-26T16:00:45.757Z,14.55
2022-12-26T16:02:17.170Z,13.93
2022-12-26T16:03:48.656Z,7.95
2022-12-26T16:05:19.854Z,13.49
2022-12-26T16:06:51.267Z,15.43
2022-12-26T16:08:22.944Z,11.93
2022-12-26T16:09:54.289Z,18.67
2022-12-26T16:11:25.885Z,17.41
2022-12-26T16:12:57.544Z,17.14
2022-12-26T16:14:29.053Z,14.19
2022-12-26T16:16:05.359Z,11.27
2022-12-26T16:17:36.650Z,15.59
2022-12-26T16:19:08.624Z,15.77
2022-12-26T16:20:39.837Z,10.85
2022-12-26T16:22:11.077Z,10.82
2022-12-26T16:23:42.435Z,10.67
2022-12-26T16:25:13.752Z,10.32
2022-12-26T16:26:45.065Z,12.53
2022-12-26T16:28:16.415Z,13.34
2022-12-26T16:29:47.883Z,12.14
2022-12-26T16:31:19.436Z,10.92
2022-12-26T16:32:51.026Z,12.42
2022-12-26T16:34:22.350Z,13.25
2022-12-26T16:35:59.010Z,13.59
2022-12-26T16:37:32.470Z,12.61
2022-12-26T16:39:04.082Z,11.43
2022-12-26T16:40:35.262Z,9.05
2022-12-26T16:42:06.661Z,7.37
2022-12-26T16:43:37.879Z,9.32
2022-12-26T16:45:09.213Z,10.01
2022-12-26T16:46:40.665Z,10.98
2022-12-26T16:48:11.958Z,8.09
2022-12-26T16:49:43.645Z,10.45
2022-12-26T16:51:14.968Z,9.70
2022-12-26T16:52:47.180Z,10.16
2022-12-26T16:54:18.823Z,8.84
2022-12-26T16:55:50.110Z,9.31
2022-12-26T16:57:21.437Z,12.05
2022-12-26T16:58:52.826Z,8.31
2022-12-26T17:00:24.053Z,7.86
2022-12-26T17:01:55.629Z,10.75
2022-12-26T17:03:27.281Z,7.20
2022-12-26T17:04:58.801Z,10.01
2022-12-26T17:07:01.138Z,8.49
2022-12-26T17:08:32.697Z,9.95
2022-12-26T17:10:07.069Z,8.60
2022-12-26T17:11:42.283Z,9.85
2022-12-26T17:13:13.710Z,10.32
2022-12-26T17:14:45.065Z,13.84
2022-12-26T17:16:16.673Z,14.04
2022-12-26T17:17:47.855Z,11.96
2022-12-26T17:19:19.147Z,8.77
2022-12-26T17:20:55.652Z,11.05
2022-12-26T17:22:26.992Z,12.00
2022-12-26T17:23:58.374Z,11.89
2022-12-26T17:25:39.616Z,11.61
2022-12-26T17:27:15.969Z,9.26
2022-12-26T17:28:47.646Z,10.74
2022-12-26T17:30:19.016Z,7.66
2022-12-26T17:31:50.330Z,7.62
2022-12-26T17:33:21.724Z,9.77
2022-12-26T17:34:53.283Z,10.94
2022-12-26T17:37:17.220Z,9.44
2022-12-26T17:38:49.545Z,9.59
2022-12-26T17:40:20.746Z,11.49
2022-12-26T17:41:52.026Z,10.73
2022-12-26T17:43:23.229Z,8.35
2022-12-26T17:44:54.776Z,10.65
2022-12-26T17:46:26.257Z,9.49
2022-12-26T17:47:57.799Z,6.96
2022-12-26T17:49:28.984Z,6.24
2022-12-26T17:51:00.443Z,6.31
2022-12-26T17:52:31.932Z,7.17
2022-12-26T17:54:03.330Z,9.27
2022-12-26T17:55:34.903Z,6.31
2022-12-26T17:57:06.166Z,8.31
2022-12-26T17:58:37.341Z,8.36
2022-12-26T18:00:08.577Z,9.02
2022-12-26T18:01:40.069Z,10.50
2022-12-26T18:03:11.793Z,7.83
2022-12-26T18:04:43.599Z,5.58
2022-12-26T18:06:14.841Z,8.65
2022-12-26T18:07:46.651Z,5.82
2022-12-26T18:09:18.108Z,7.71
2022-12-26T18:10:49.474Z,6.29
2022-12-26T18:12:20.986Z,11.42
2022-12-26T18:13:52.503Z,8.49
2022-12-26T18:15:24.104Z,8.96
2022-12-26T18:16:55.441Z,8.61
2022-12-26T18:18:26.755Z,6.97
2022-12-26T18:19:58.024Z,8.35
2022-12-26T18:21:29.375Z,7.51
2022-12-26T18:23:00.684Z,8.61
2022-12-26T18:24:31.901Z,10.12
2022-12-26T18:26:03.666Z,8.98
2022-12-26T18:27:35.182Z,10.30
2022-12-26T18:29:06.369Z,9.16
2022-12-26T18:30:37.652Z,14.64
2022-12-26T18:32:09.036Z,11.62
2022-12-26T18:33:40.196Z,9.17
2022-12-26T18:35:11.536Z,11.60
2022-12-26T18:36:42.887Z,13.31
2022-12-26T18:38:14.220Z,9.14
2022-12-26T18:39:45.566Z,11.30
2022-12-26T18:41:16.907Z,9.47
2022-12-26T18:42:48.228Z,10.76
2022-12-26T18:44:19.759Z,7.69
2022-12-26T18:46:04.684Z,7.38
2022-12-26T18:47:36.773Z,11.81
2022-12-26T18:49:08.103Z,10.40
2022-12-26T18:50:39.372Z,9.37
2022-12-26T18:52:10.577Z,13.17
2022-12-26T18:53:46.950Z,14.80
2022-12-26T18:55:18.176Z,15.07
2022-12-26T18:56:49.459Z,16.07
2022-12-26T18:58:31.238Z,15.76
2022-12-26T19:00:02.456Z,12.54
2022-12-26T19:01:33.861Z,9.34
2022-12-26T19:03:05.375Z,11.86
2022-12-26T19:04:36.807Z,9.27
2022-12-26T19:06:08.140Z,10.73
2022-12-26T19:07:39.342Z,9.17
2022-12-26T19:09:10.766Z,9.76
2022-12-26T19:10:42.032Z,9.64
2022-12-26T19:12:13.408Z,9.96
2022-12-26T19:13:44.761Z,8.90
2022-12-26T19:15:16.067Z,9.31
2022-12-26T19:16:47.464Z,8.20
2022-12-26T19:18:34.064Z,6.79
2022-12-26T19:20:10.382Z,8.79
2022-12-26T19:21:41.908Z,6.82
2022-12-26T19:23:13.678Z,7.91
2022-12-26T19:24:45.291Z,9.34
2022-12-26T19:26:16.761Z,9.28
2022-12-26T19:27:48.065Z,7.11
2022-12-26T19:29:19.417Z,7.89
2022-12-26T19:30:50.644Z,8.12
2022-12-26T19:32:22.189Z,9.20
2022-12-26T19:33:53.893Z,6.94
2022-12-26T19:35:26.045Z,5.78
2022-12-26T19:36:57.487Z,6.58
2022-12-26T19:38:39.055Z,6.98
2022-12-26T19:40:24.995Z,8.42
2022-12-26T19:41:56.814Z,9.55
2022-12-26T19:43:28.518Z,9.72
2022-12-26T19:44:59.798Z,8.20
2022-12-26T19:46:32.141Z,8.63
2022-12-26T19:48:08.461Z,8.47
2022-12-26T19:49:44.753Z,8.55
2022-12-26T19:51:26.214Z,12.16
2022-12-26T19:52:57.631Z,8.62
2022-12-26T19:54:29.015Z,11.07
2022-12-26T19:56:01.200Z,11.67
2022-12-26T19:57:33.026Z,11.33
2022-12-26T19:59:04.296Z,11.88
2022-12-26T20:00:35.706Z,9.72
2022-12-26T20:02:07.245Z,11.79
2022-12-26T20:03:38.477Z,9.75
2022-12-26T20:05:09.789Z,10.23
2022-12-26T20:06:41.006Z,11.93
2022-12-26T20:08:12.887Z,11.59
2022-12-26T20:09:44.142Z,11.85
2022-12-26T20:11:15.439Z,13.13
2022-12-26T20:12:46.844Z,13.78
2022-12-26T20:14:18.156Z,12.20
2022-12-26T20:15:49.389Z,11.25
2022-12-26T20:17:20.699Z,13.54
2022-12-26T20:18:52.100Z,11.52
2022-12-26T20:20:23.504Z,11.48